Photometre #46[NE_1.6] Lille AOT

File : 20220924_46.hum

24/09/2022,06:32:39,TEMP=14.6,BA=5.64,STAT.h
24/09/2022,06:36:51,TEMP=12.6,BA=5.64,STAT.A=3.5,ExtBa=13.01
24/09/2022,06:41:38,TEMP=12.8,BA=5.64,STAT.A=3.5,ExtBa=13.01
24/09/2022,06:47:20,TEMP=12.8,BA=5.64,STAT.A=3.5,ExtBa=13.01
24/09/2022,06:54:13,TEMP=12.8,BA=5.64,STAT.A=3.5,ExtBa=13.01
24/09/2022,07:02:45,TEMP=12.9,BA=5.64,STAT.A=3.5,ExtBa=13.01
24/09/2022,07:13:13,TEMP=13.1,BA=5.64,STAT.h
24/09/2022,07:18:46,TEMP=13.1,BA=5.64,STAT.A=3.5,ExtBa=13.01
24/09/2022,07:24:37,TEMP=13.2,BA=5.52,STAT.A=3.5,ExtBa=13.01
24/09/2022,07:31:14,TEMP=13.2,BA=5.64,STAT.A=3.5,ExtBa=13.01
24/09/2022,07:38:49,TEMP=13.2,BA=5.64,STAT.A=3.5,ExtBa=13.01
24/09/2022,07:47:13,TEMP=13.5,BA=5.52,STAT.h
24/09/2022,07:57:29,TEMP=13.5,BA=5.64,STAT.h
24/09/2022,08:09:44,TEMP=13.5,BA=5.64,STAT.h
24/09/2022,08:25:05,TEMP=13.4,BA=5.64,STAT.A=3.5,ExtBa=13.01
24/09/2022,08:26:05,TEMP=13.4,BA=5.64,STAT.h
24/09/2022,08:40:11,TEMP=13.7,BA=5.60,STAT.F,ExtBa=12.99
24/09/2022,08:55:09,TEMP=14.0,BA=5.64,STAT.D=3.5,ExtBa=13.01
24/09/2022,09:10:10,TEMP=15.2,BA=5.60,STAT.D=3.5,ExtBa=13.01
24/09/2022,09:25:10,TEMP=15.2,BA=5.64,STAT.D=3.5,ExtBa=13.01
24/09/2022,09:40:11,TEMP=15.4,BA=5.56,STAT.F,ExtBa=12.99
24/09/2022,09:55:10,TEMP=15.3,BA=5.64,STAT.D=3.5,ExtBa=13.02
24/09/2022,10:09:49,TEMP=15.6,BA=5.64,STAT.h
24/09/2022,10:24:49,TEMP=15.6,BA=5.64,STAT.h
24/09/2022,10:39:49,TEMP=15.6,BA=5.64,STAT.h
24/09/2022,10:54:49,TEMP=15.6,BA=5.64,STAT.h
24/09/2022,11:10:05,TEMP=15.6,BA=5.56,STAT.h
24/09/2022,11:24:49,TEMP=15.6,BA=5.64,STAT.h
24/09/2022,11:40:11,TEMP=15.2,BA=5.56,STAT.F,ExtBa=13.01
24/09/2022,11:55:10,TEMP=15.5,BA=5.64,STAT.D=3.5,ExtBa=13.02
24/09/2022,12:10:10,TEMP=15.8,BA=5.56,STAT.D=3.5,ExtBa=13.02
24/09/2022,12:25:10,TEMP=17.0,BA=5.64,STAT.D=3.5,ExtBa=13.03
24/09/2022,12:40:11,TEMP=17.5,BA=5.56,STAT.F,ExtBa=13.00
24/09/2022,12:55:10,TEMP=18.8,BA=5.52,STAT.D=3.5,ExtBa=12.78
24/09/2022,13:10:10,TEMP=18.4,BA=5.56,STAT.D=3.5,ExtBa=13.03
24/09/2022,13:25:10,TEMP=18.2,BA=5.64,STAT.D=3.5,ExtBa=13.09
24/09/2022,13:40:11,TEMP=19.1,BA=5.56,STAT.F,ExtBa=13.11
24/09/2022,13:55:10,TEMP=19.1,BA=5.64,STAT.D=3.5,ExtBa=13.15
24/09/2022,14:10:09,TEMP=19.2,BA=5.56,STAT.D=3.5,ExtBa=13.15
24/09/2022,14:25:09,TEMP=20.3,BA=5.64,STAT.D=3.5,ExtBa=13.16
24/09/2022,14:40:11,TEMP=20.8,BA=5.56,STAT.F,ExtBa=13.14
24/09/2022,14:55:17,TEMP=19.0,BA=5.64,STAT.A=3.5,ExtBa=13.16
24/09/2022,15:10:16,TEMP=18.9,BA=5.60,STAT.A=3.5,ExtBa=13.17
24/09/2022,15:22:31,TEMP=18.0,BA=5.64,STAT.A=3.5,ExtBa=13.15
24/09/2022,15:32:47,TEMP=17.5,BA=5.64,STAT.C=3.5,ExtBa=13.13
24/09/2022,15:41:32,TEMP=17.3,BA=5.64,STAT.A=3.5,ExtBa=13.11
24/09/2022,15:49:06,TEMP=17.1,BA=5.64,STAT.A=3.5,ExtBa=13.10
24/09/2022,15:55:43,TEMP=16.8,BA=5.52,STAT.A=3.5,ExtBa=13.10
24/09/2022,16:01:34,TEMP=16.6,BA=5.64,STAT.A=3.5,ExtBa=13.09
24/09/2022,16:06:46,TEMP=16.7,BA=5.64,STAT.B=3.5,ExtBa=13.08
24/09/2022,16:17:35,TEMP=17.0,BA=5.52,STAT.A=3.5,ExtBa=12.83
24/09/2022,16:26:07,TEMP=16.4,BA=5.64,STAT.A=3.5,ExtBa=12.98
24/09/2022,16:33:00,TEMP=16.4,BA=5.64,STAT.A=3.5,ExtBa=13.00
24/09/2022,16:38:42,TEMP=16.8,BA=5.64,STAT.A=3.5,ExtBa=13.00
24/09/2022,16:43:29,TEMP=17.1,BA=5.52,STAT.A=3.5,ExtBa=12.96
24/09/2022,16:47:44,TEMP=17.3,BA=5.52,STAT.A=3.5,ExtBa=12.94